sensor_id;sensor_type;location;lat;lon;timestamp;pressure;altitude;pressure_sealevel;temperature;humidity
45872;BME280;32333;55.844;-3.210;2024-02-21T00:01:50;99128.88;;;1.39;100.00
45872;BME280;32333;55.844;-3.210;2024-02-21T00:04:18;99126.13;;;1.72;100.00
45872;BME280;32333;55.844;-3.210;2024-02-21T00:06:45;99122.67;;;1.90;100.00
45872;BME280;32333;55.844;-3.210;2024-02-21T00:09:13;99116.83;;;2.09;100.00
45872;BME280;32333;55.844;-3.210;2024-02-21T00:11:40;99113.99;;;2.65;100.00
45872;BME280;32333;55.844;-3.210;2024-02-21T00:14:35;99117.66;;;2.02;100.00
45872;BME280;32333;55.844;-3.210;2024-02-21T00:17:03;99113.71;;;2.39;100.00
45872;BME280;32333;55.844;-3.210;2024-02-21T00:19:31;99100.94;;;2.27;100.00
45872;BME280;32333;55.844;-3.210;2024-02-21T00:21:58;99084.40;;;2.34;100.00
45872;BME280;32333;55.844;-3.210;2024-02-21T00:24:26;99088.90;;;2.91;100.00
45872;BME280;32333;55.844;-3.210;2024-02-21T00:26:53;99100.71;;;0.93;100.00
45872;BME280;32333;55.844;-3.210;2024-02-21T00:29:21;99104.68;;;1.99;100.00
45872;BME280;32333;55.844;-3.210;2024-02-21T00:31:49;99104.24;;;1.85;100.00
45872;BME280;32333;55.844;-3.210;2024-02-21T00:34:16;99086.74;;;1.95;100.00
45872;BME280;32333;55.844;-3.210;2024-02-21T00:36:44;99062.50;;;1.26;100.00
45872;BME280;32333;55.844;-3.210;2024-02-21T00:39:11;99051.90;;;1.33;100.00
45872;BME280;32333;55.844;-3.210;2024-02-21T00:41:39;99057.06;;;1.24;100.00
45872;BME280;32333;55.844;-3.210;2024-02-21T00:44:35;99058.94;;;1.09;100.00
45872;BME280;32333;55.844;-3.210;2024-02-21T00:47:02;99060.35;;;1.26;100.00
45872;BME280;32333;55.844;-3.210;2024-02-21T00:49:30;99053.68;;;1.00;100.00
45872;BME280;32333;55.844;-3.210;2024-02-21T00:51:57;99047.47;;;0.53;100.00
45872;BME280;32333;55.844;-3.210;2024-02-21T00:54:24;99051.81;;;0.80;100.00
45872;BME280;32333;55.844;-3.210;2024-02-21T00:56:52;99045.50;;;0.95;100.00
45872;BME280;32333;55.844;-3.210;2024-02-21T00:59:19;99042.58;;;1.24;100.00
45872;BME280;32333;55.844;-3.210;2024-02-21T01:01:47;99023.72;;;0.81;100.00
45872;BME280;32333;55.844;-3.210;2024-02-21T01:04:14;99014.88;;;1.43;100.00
45872;BME280;32333;55.844;-3.210;2024-02-21T01:06:42;99014.14;;;1.56;100.00
45872;BME280;32333;55.844;-3.210;2024-02-21T01:09:09;99016.89;;;0.99;100.00
45872;BME280;32333;55.844;-3.210;2024-02-21T01:11:36;99013.09;;;2.30;100.00
45872;BME280;32333;55.844;-3.210;2024-02-21T01:14:35;99031.93;;;1.66;100.00
45872;BME280;32333;55.844;-3.210;2024-02-21T01:17:03;99020.75;;;1.35;100.00
45872;BME280;32333;55.844;-3.210;2024-02-21T01:19:30;99018.74;;;0.72;100.00
45872;BME280;32333;55.844;-3.210;2024-02-21T01:21:57;99021.05;;;1.86;100.00
45872;BME280;32333;55.844;-3.210;2024-02-21T01:24:24;99027.75;;;1.31;100.00
45872;BME280;32333;55.844;-3.210;2024-02-21T01:26:52;99018.68;;;0.75;100.00
45872;BME280;32333;55.844;-3.210;2024-02-21T01:29:19;99003.14;;;0.34;100.00
45872;BME280;32333;55.844;-3.210;2024-02-21T01:31:46;99002.76;;;0.34;100.00
45872;BME280;32333;55.844;-3.210;2024-02-21T01:34:13;98990.04;;;0.98;100.00
45872;BME280;32333;55.844;-3.210;2024-02-21T01:36:40;98992.85;;;0.73;100.00
45872;BME280;32333;55.844;-3.210;2024-02-21T01:39:08;98986.27;;;0.37;100.00
45872;BME280;32333;55.844;-3.210;2024-02-21T01:41:35;98973.13;;;0.09;100.00
45872;BME280;32333;55.844;-3.210;2024-02-21T01:44:34;98992.73;;;0.88;100.00
45872;BME280;32333;55.844;-3.210;2024-02-21T01:47:02;98990.86;;;0.80;100.00
45872;BME280;32333;55.844;-3.210;2024-02-21T01:49:30;98968.43;;;0.93;100.00
45872;BME280;32333;55.844;-3.210;2024-02-21T01:51:57;98952.58;;;1.25;100.00
45872;BME280;32333;55.844;-3.210;2024-02-21T01:54:25;98954.26;;;1.15;100.00
45872;BME280;32333;55.844;-3.210;2024-02-21T01:56:53;98946.24;;;1.20;100.00
45872;BME280;32333;55.844;-3.210;2024-02-21T01:59:21;98932.98;;;0.63;100.00
45872;BME280;32333;55.844;-3.210;2024-02-21T02:01:50;98935.15;;;1.50;100.00
45872;BME280;32333;55.844;-3.210;2024-02-21T02:04:19;98928.59;;;1.99;100.00
45872;BME280;32333;55.844;-3.210;2024-02-21T02:06:47;98928.03;;;1.88;100.00
45872;BME280;32333;55.844;-3.210;2024-02-21T02:09:15;98919.51;;;1.76;100.00
45872;BME280;32333;55.844;-3.210;2024-02-21T02:11:43;98913.20;;;1.81;100.00
45872;BME280;32333;55.844;-3.210;2024-02-21T02:14:34;98900.97;;;2.11;100.00
45872;BME280;32333;55.844;-3.210;2024-02-21T02:17:02;98890.52;;;2.48;100.00
45872;BME280;32333;55.844;-3.210;2024-02-21T02:19:29;98879.75;;;2.63;100.00
45872;BME280;32333;55.844;-3.210;2024-02-21T02:22:02;98875.28;;;0.37;100.00
45872;BME280;32333;55.844;-3.210;2024-02-21T02:24:34;98864.47;;;1.69;100.00
45872;BME280;32333;55.844;-3.210;2024-02-21T02:27:02;98856.48;;;1.73;100.00
45872;BME280;32333;55.844;-3.210;2024-02-21T02:29:32;98849.17;;;1.87;100.00
45872;BME280;32333;55.844;-3.210;2024-02-21T02:31:59;98852.74;;;2.46;100.00
45872;BME280;32333;55.844;-3.210;2024-02-21T02:34:26;98847.26;;;2.64;100.00
45872;BME280;32333;55.844;-3.210;2024-02-21T02:36:53;98845.21;;;1.44;100.00
45872;BME280;32333;55.844;-3.210;2024-02-21T02:39:21;98838.72;;;2.64;100.00
45872;BME280;32333;55.844;-3.210;2024-02-21T02:41:50;98821.53;;;1.86;100.00
45872;BME280;32333;55.844;-3.210;2024-02-21T02:44:35;98797.32;;;2.62;100.00
45872;BME280;32333;55.844;-3.210;2024-02-21T02:47:03;98790.01;;;2.32;100.00
45872;BME280;32333;55.844;-3.210;2024-02-21T02:49:30;98783.83;;;2.48;100.00
45872;BME280;32333;55.844;-3.210;2024-02-21T02:51:58;98769.83;;;2.84;100.00
45872;BME280;32333;55.844;-3.210;2024-02-21T02:54:25;98754.44;;;2.48;100.00
45872;BME280;32333;55.844;-3.210;2024-02-21T02:56:52;98748.03;;;2.96;100.00
45872;BME280;32333;55.844;-3.210;2024-02-21T02:59:20;98745.94;;;1.90;100.00
45872;BME280;32333;55.844;-3.210;2024-02-21T03:01:47;98727.40;;;2.51;100.00
45872;BME280;32333;55.844;-3.210;2024-02-21T03:04:15;98706.47;;;2.87;100.00
45872;BME280;32333;55.844;-3.210;2024-02-21T03:06:42;98702.86;;;2.37;100.00
45872;BME280;32333;55.844;-3.210;2024-02-21T03:09:09;98686.60;;;1.48;100.00
45872;BME280;32333;55.844;-3.210;2024-02-21T03:11:37;98665.76;;;0.95;100.00
45872;BME280;32333;55.844;-3.210;2024-02-21T03:14:35;98636.18;;;1.75;100.00
45872;BME280;32333;55.844;-3.210;2024-02-21T03:17:03;98623.72;;;1.17;100.00
45872;BME280;32333;55.844;-3.210;2024-02-21T03:19:30;98610.71;;;1.50;100.00
45872;BME280;32333;55.844;-3.210;2024-02-21T03:21:58;98612.07;;;1.52;100.00
45872;BME280;32333;55.844;-3.210;2024-02-21T03:24:25;98609.21;;;1.70;100.00
45872;BME280;32333;55.844;-3.210;2024-02-21T03:26:52;98598.31;;;0.90;100.00
45872;BME280;32333;55.844;-3.210;2024-02-21T03:29:20;98591.97;;;1.21;100.00
45872;BME280;32333;55.844;-3.210;2024-02-21T03:31:47;98592.53;;;0.83;100.00
45872;BME280;32333;55.844;-3.210;2024-02-21T03:34:14;98579.24;;;1.50;100.00
45872;BME280;32333;55.844;-3.210;2024-02-21T03:36:41;98572.41;;;1.15;100.00
45872;BME280;32333;55.844;-3.210;2024-02-21T03:39:09;98562.77;;;1.62;100.00
45872;BME280;32333;55.844;-3.210;2024-02-21T03:41:36;98548.09;;;1.53;100.00
45872;BME280;32333;55.844;-3.210;2024-02-21T03:44:34;98540.89;;;1.89;100.00
45872;BME280;32333;55.844;-3.210;2024-02-21T03:47:02;98534.29;;;2.06;100.00
45872;BME280;32333;55.844;-3.210;2024-02-21T03:49:29;98524.98;;;1.61;100.00
45872;BME280;32333;55.844;-3.210;2024-02-21T03:51:56;98520.38;;;2.29;100.00
45872;BME280;32333;55.844;-3.210;2024-02-21T03:54:24;98507.41;;;2.45;100.00
45872;BME280;32333;55.844;-3.210;2024-02-21T03:56:51;98504.28;;;2.52;100.00
45872;BME280;32333;55.844;-3.210;2024-02-21T03:59:18;98505.09;;;2.58;100.00
45872;BME280;32333;55.844;-3.210;2024-02-21T04:01:45;98493.09;;;3.13;100.00
45872;BME280;32333;55.844;-3.210;2024-02-21T04:04:13;98480.04;;;3.07;100.00
45872;BME280;32333;55.844;-3.210;2024-02-21T04:06:46;98483.44;;;2.61;100.00
45872;BME280;32333;55.844;-3.210;2024-02-21T04:09:13;98472.45;;;2.27;100.00
45872;BME280;32333;55.844;-3.210;2024-02-21T04:11:41;98469.58;;;1.97;100.00
45872;BME280;32333;55.844;-3.210;2024-02-21T04:14:35;98475.45;;;2.35;100.00
45872;BME280;32333;55.844;-3.210;2024-02-21T04:17:02;98469.88;;;2.88;100.00
45872;BME280;32333;55.844;-3.210;2024-02-21T04:19:29;98467.92;;;2.77;100.00
45872;BME280;32333;55.844;-3.210;2024-02-21T04:21:56;98463.95;;;2.90;100.00
45872;BME280;32333;55.844;-3.210;2024-02-21T04:24:23;98462.25;;;3.14;100.00
45872;BME280;32333;55.844;-3.210;2024-02-21T04:26:51;98454.53;;;3.02;100.00
45872;BME280;32333;55.844;-3.210;2024-02-21T04:29:18;98425.84;;;3.15;100.00
45872;BME280;32333;55.844;-3.210;2024-02-21T04:31:46;98412.76;;;2.63;100.00
45872;BME280;32333;55.844;-3.210;2024-02-21T04:34:13;98403.70;;;2.91;100.00
45872;BME280;32333;55.844;-3.210;2024-02-21T04:36:41;98398.54;;;2.64;100.00
45872;BME280;32333;55.844;-3.210;2024-02-21T04:39:08;98379.72;;;3.16;100.00
45872;BME280;32333;55.844;-3.210;2024-02-21T04:41:35;98372.28;;;2.80;100.00
45872;BME280;32333;55.844;-3.210;2024-02-21T04:44:34;98364.81;;;3.86;100.00
45872;BME280;32333;55.844;-3.210;2024-02-21T04:47:02;98347.88;;;3.50;100.00
45872;BME280;32333;55.844;-3.210;2024-02-21T04:49:29;98336.26;;;3.73;100.00
45872;BME280;32333;55.844;-3.210;2024-02-21T04:51:57;98326.98;;;3.20;100.00
45872;BME280;32333;55.844;-3.210;2024-02-21T04:54:24;98320.60;;;2.98;100.00
45872;BME280;32333;55.844;-3.210;2024-02-21T04:56:51;98307.62;;;2.37;100.00
45872;BME280;32333;55.844;-3.210;2024-02-21T04:59:18;98299.35;;;2.63;100.00
45872;BME280;32333;55.844;-3.210;2024-02-21T05:01:46;98291.40;;;3.43;100.00
45872;BME280;32333;55.844;-3.210;2024-02-21T05:04:13;98284.07;;;2.83;100.00
45872;BME280;32333;55.844;-3.210;2024-02-21T05:06:41;98267.10;;;3.01;100.00
45872;BME280;32333;55.844;-3.210;2024-02-21T05:09:09;98260.63;;;3.22;100.00
45872;BME280;32333;55.844;-3.210;2024-02-21T05:11:37;98244.22;;;2.86;100.00
45872;BME280;32333;55.844;-3.210;2024-02-21T05:14:35;98224.33;;;3.62;100.00
45872;BME280;32333;55.844;-3.210;2024-02-21T05:17:03;98222.70;;;3.72;100.00
45872;BME280;32333;55.844;-3.210;2024-02-21T05:19:30;98230.17;;;3.93;100.00
45872;BME280;32333;55.844;-3.210;2024-02-21T05:21:59;98230.12;;;3.12;100.00
45872;BME280;32333;55.844;-3.210;2024-02-21T05:24:26;98226.76;;;3.25;100.00
45872;BME280;32333;55.844;-3.210;2024-02-21T05:26:54;98224.39;;;3.67;100.00
45872;BME280;32333;55.844;-3.210;2024-02-21T05:29:21;98221.55;;;3.47;100.00
45872;BME280;32333;55.844;-3.210;2024-02-21T05:31:56;98213.32;;;3.35;100.00
45872;BME280;32333;55.844;-3.210;2024-02-21T05:34:23;98197.19;;;3.14;100.00
45872;BME280;32333;55.844;-3.210;2024-02-21T05:36:51;98189.66;;;3.37;100.00
45872;BME280;32333;55.844;-3.210;2024-02-21T05:39:19;98183.95;;;3.58;100.00
45872;BME280;32333;55.844;-3.210;2024-02-21T05:41:47;98169.83;;;3.80;100.00
45872;BME280;32333;55.844;-3.210;2024-02-21T05:44:35;98163.19;;;3.29;100.00
45872;BME280;32333;55.844;-3.210;2024-02-21T05:47:02;98150.16;;;3.36;100.00
45872;BME280;32333;55.844;-3.210;2024-02-21T05:49:29;98140.15;;;3.38;100.00
45872;BME280;32333;55.844;-3.210;2024-02-21T05:51:56;98133.19;;;3.74;100.00
45872;BME280;32333;55.844;-3.210;2024-02-21T05:54:31;98123.80;;;3.86;100.00
45872;BME280;32333;55.844;-3.210;2024-02-21T05:56:58;98099.65;;;3.24;100.00
45872;BME280;32333;55.844;-3.210;2024-02-21T05:59:26;98095.26;;;3.02;100.00
45872;BME280;32333;55.844;-3.210;2024-02-21T06:01:56;98078.29;;;2.64;100.00
45872;BME280;32333;55.844;-3.210;2024-02-21T06:04:24;98056.31;;;3.86;100.00
45872;BME280;32333;55.844;-3.210;2024-02-21T06:06:51;98046.65;;;3.27;100.00
45872;BME280;32333;55.844;-3.210;2024-02-21T06:09:19;98041.63;;;3.42;100.00
45872;BME280;32333;55.844;-3.210;2024-02-21T06:11:47;98031.82;;;4.27;100.00
45872;BME280;32333;55.844;-3.210;2024-02-21T06:14:35;98016.01;;;4.16;100.00
45872;BME280;32333;55.844;-3.210;2024-02-21T06:17:02;98015.24;;;4.46;100.00
45872;BME280;32333;55.844;-3.210;2024-02-21T06:19:30;97992.59;;;4.03;100.00
45872;BME280;32333;55.844;-3.210;2024-02-21T06:21:57;97981.00;;;3.29;100.00
45872;BME280;32333;55.844;-3.210;2024-02-21T06:24:26;97971.78;;;3.28;100.00
45872;BME280;32333;55.844;-3.210;2024-02-21T06:26:53;97961.65;;;3.38;100.00
45872;BME280;32333;55.844;-3.210;2024-02-21T06:29:20;97950.96;;;3.13;100.00
45872;BME280;32333;55.844;-3.210;2024-02-21T06:31:47;97948.16;;;2.93;100.00
45872;BME280;32333;55.844;-3.210;2024-02-21T06:34:14;97927.10;;;3.00;100.00
45872;BME280;32333;55.844;-3.210;2024-02-21T06:36:42;97927.95;;;2.61;100.00
45872;BME280;32333;55.844;-3.210;2024-02-21T06:39:09;97920.56;;;2.85;100.00
45872;BME280;32333;55.844;-3.210;2024-02-21T06:41:37;97905.81;;;2.97;100.00
45872;BME280;32333;55.844;-3.210;2024-02-21T06:44:34;97889.26;;;3.06;100.00
45872;BME280;32333;55.844;-3.210;2024-02-21T06:47:02;97886.97;;;2.64;100.00
45872;BME280;32333;55.844;-3.210;2024-02-21T06:49:30;97877.12;;;3.01;100.00
45872;BME280;32333;55.844;-3.210;2024-02-21T06:51:58;97873.83;;;2.77;100.00
45872;BME280;32333;55.844;-3.210;2024-02-21T06:54:25;97865.50;;;3.09;100.00
45872;BME280;32333;55.844;-3.210;2024-02-21T06:56:54;97855.23;;;3.54;100.00
45872;BME280;32333;55.844;-3.210;2024-02-21T06:59:21;97846.87;;;2.92;100.00
45872;BME280;32333;55.844;-3.210;2024-02-21T07:01:49;97833.30;;;3.48;100.00
45872;BME280;32333;55.844;-3.210;2024-02-21T07:04:17;97817.37;;;3.40;100.00
45872;BME280;32333;55.844;-3.210;2024-02-21T07:06:45;97809.99;;;2.87;100.00
45872;BME280;32333;55.844;-3.210;2024-02-21T07:09:12;97794.31;;;2.86;100.00
45872;BME280;32333;55.844;-3.210;2024-02-21T07:11:39;97776.71;;;3.53;100.00
45872;BME280;32333;55.844;-3.210;2024-02-21T07:14:35;97759.77;;;3.89;100.00
45872;BME280;32333;55.844;-3.210;2024-02-21T07:17:03;97740.84;;;3.13;100.00
45872;BME280;32333;55.844;-3.210;2024-02-21T07:19:30;97730.26;;;3.38;100.00
45872;BME280;32333;55.844;-3.210;2024-02-21T07:21:58;97714.17;;;3.96;100.00
45872;BME280;32333;55.844;-3.210;2024-02-21T07:24:25;97698.32;;;4.04;100.00
45872;BME280;32333;55.844;-3.210;2024-02-21T07:26:53;97682.75;;;3.50;100.00
45872;BME280;32333;55.844;-3.210;2024-02-21T07:29:20;97665.70;;;3.71;100.00
45872;BME280;32333;55.844;-3.210;2024-02-21T07:31:48;97651.64;;;4.12;100.00
45872;BME280;32333;55.844;-3.210;2024-02-21T07:34:16;97635.13;;;4.17;100.00
45872;BME280;32333;55.844;-3.210;2024-02-21T07:36:43;97638.32;;;3.38;100.00
45872;BME280;32333;55.844;-3.210;2024-02-21T07:39:10;97618.62;;;3.41;100.00
45872;BME280;32333;55.844;-3.210;2024-02-21T07:41:38;97596.57;;;4.33;100.00
45872;BME280;32333;55.844;-3.210;2024-02-21T07:44:35;97592.97;;;3.06;100.00
45872;BME280;32333;55.844;-3.210;2024-02-21T07:47:02;97577.40;;;4.25;100.00
45872;BME280;32333;55.844;-3.210;2024-02-21T07:49:30;97565.83;;;3.89;100.00
45872;BME280;32333;55.844;-3.210;2024-02-21T07:52:00;97558.64;;;4.95;100.00
45872;BME280;32333;55.844;-3.210;2024-02-21T07:54:29;97544.41;;;3.97;100.00
45872;BME280;32333;55.844;-3.210;2024-02-21T07:56:56;97537.25;;;3.85;100.00
45872;BME280;32333;55.844;-3.210;2024-02-21T07:59:23;97523.54;;;4.37;100.00
45872;BME280;32333;55.844;-3.210;2024-02-21T08:01:50;97511.57;;;4.59;100.00
45872;BME280;32333;55.844;-3.210;2024-02-21T08:04:17;97500.94;;;3.93;100.00
45872;BME280;32333;55.844;-3.210;2024-02-21T08:06:45;97496.94;;;3.97;100.00
45872;BME280;32333;55.844;-3.210;2024-02-21T08:09:12;97494.50;;;4.90;100.00
45872;BME280;32333;55.844;-3.210;2024-02-21T08:11:39;97487.39;;;4.76;100.00
45872;BME280;32333;55.844;-3.210;2024-02-21T08:14:35;97465.22;;;4.77;100.00
45872;BME280;32333;55.844;-3.210;2024-02-21T08:17:03;97456.55;;;4.03;100.00
45872;BME280;32333;55.844;-3.210;2024-02-21T08:19:31;97443.67;;;4.40;100.00
45872;BME280;32333;55.844;-3.210;2024-02-21T08:21:58;97430.91;;;4.83;100.00
45872;BME280;32333;55.844;-3.210;2024-02-21T08:24:25;97417.11;;;4.96;100.00
45872;BME280;32333;55.844;-3.210;2024-02-21T08:26:52;97395.57;;;4.78;100.00
45872;BME280;32333;55.844;-3.210;2024-02-21T08:29:19;97386.22;;;4.65;100.00
45872;BME280;32333;55.844;-3.210;2024-02-21T08:31:47;97375.33;;;4.77;100.00
45872;BME280;32333;55.844;-3.210;2024-02-21T08:34:14;97362.73;;;4.97;100.00
45872;BME280;32333;55.844;-3.210;2024-02-21T08:36:42;97356.85;;;4.76;100.00
45872;BME280;32333;55.844;-3.210;2024-02-21T08:39:10;97347.28;;;4.06;100.00
45872;BME280;32333;55.844;-3.210;2024-02-21T08:41:37;97333.21;;;4.10;100.00
45872;BME280;32333;55.844;-3.210;2024-02-21T08:44:35;97324.32;;;5.16;100.00
45872;BME280;32333;55.844;-3.210;2024-02-21T08:47:07;97317.06;;;4.90;100.00
45872;BME280;32333;55.844;-3.210;2024-02-21T08:49:35;97292.80;;;4.15;100.00
45872;BME280;32333;55.844;-3.210;2024-02-21T08:52:03;97297.27;;;4.66;100.00
45872;BME280;32333;55.844;-3.210;2024-02-21T08:54:30;97293.42;;;5.01;100.00
45872;BME280;32333;55.844;-3.210;2024-02-21T08:56:59;97282.08;;;4.48;100.00
45872;BME280;32333;55.844;-3.210;2024-02-21T08:59:26;97264.68;;;4.74;100.00
45872;BME280;32333;55.844;-3.210;2024-02-21T09:01:53;97265.66;;;4.96;100.00
45872;BME280;32333;55.844;-3.210;2024-02-21T09:04:22;97255.76;;;4.91;100.00
45872;BME280;32333;55.844;-3.210;2024-02-21T09:06:49;97248.93;;;4.98;100.00
45872;BME280;32333;55.844;-3.210;2024-02-21T09:09:16;97233.31;;;5.82;100.00
45872;BME280;32333;55.844;-3.210;2024-02-21T09:11:44;97237.41;;;4.76;100.00
45872;BME280;32333;55.844;-3.210;2024-02-21T09:14:37;97222.98;;;5.06;100.00
45872;BME280;32333;55.844;-3.210;2024-02-21T09:17:04;97218.41;;;4.42;100.00
45872;BME280;32333;55.844;-3.210;2024-02-21T09:19:31;97209.23;;;4.74;100.00
45872;BME280;32333;55.844;-3.210;2024-02-21T09:21:59;97197.07;;;4.63;100.00
45872;BME280;32333;55.844;-3.210;2024-02-21T09:24:26;97187.99;;;4.89;100.00
45872;BME280;32333;55.844;-3.210;2024-02-21T09:26:54;97189.57;;;4.99;100.00
45872;BME280;32333;55.844;-3.210;2024-02-21T09:29:21;97174.36;;;4.72;100.00
45872;BME280;32333;55.844;-3.210;2024-02-21T09:31:48;97167.26;;;5.20;100.00
45872;BME280;32333;55.844;-3.210;2024-02-21T09:34:15;97154.01;;;4.77;100.00
45872;BME280;32333;55.844;-3.210;2024-02-21T09:36:42;97137.59;;;5.13;100.00
45872;BME280;32333;55.844;-3.210;2024-02-21T09:39:09;97135.72;;;4.73;100.00
45872;BME280;32333;55.844;-3.210;2024-02-21T09:41:37;97126.95;;;4.84;100.00
45872;BME280;32333;55.844;-3.210;2024-02-21T09:44:37;97103.71;;;5.61;100.00
45872;BME280;32333;55.844;-3.210;2024-02-21T09:47:08;97098.54;;;5.37;100.00
45872;BME280;32333;55.844;-3.210;2024-02-21T09:49:37;97087.97;;;5.23;100.00
45872;BME280;32333;55.844;-3.210;2024-02-21T09:52:05;97076.56;;;5.67;100.00
45872;BME280;32333;55.844;-3.210;2024-02-21T09:54:33;97070.92;;;5.18;100.00
45872;BME280;32333;55.844;-3.210;2024-02-21T09:57:03;97050.29;;;5.34;100.00
45872;BME280;32333;55.844;-3.210;2024-02-21T09:59:32;97044.04;;;5.62;100.00
45872;BME280;32333;55.844;-3.210;2024-02-21T10:02:01;97039.44;;;5.07;100.00
45872;BME280;32333;55.844;-3.210;2024-02-21T10:04:29;97031.14;;;5.78;100.00
45872;BME280;32333;55.844;-3.210;2024-02-21T10:06:57;97020.44;;;5.65;100.00
45872;BME280;32333;55.844;-3.210;2024-02-21T10:09:27;97011.83;;;6.47;100.00
45872;BME280;32333;55.844;-3.210;2024-02-21T10:11:56;97008.11;;;6.28;100.00
45872;BME280;32333;55.844;-3.210;2024-02-21T10:14:34;96996.72;;;6.12;100.00
45872;BME280;32333;55.844;-3.210;2024-02-21T10:17:02;96995.53;;;6.37;100.00
45872;BME280;32333;55.844;-3.210;2024-02-21T10:19:30;96990.71;;;5.85;100.00
45872;BME280;32333;55.844;-3.210;2024-02-21T10:22:15;96975.10;;;6.09;100.00
45872;BME280;32333;55.844;-3.210;2024-02-21T10:24:43;96970.10;;;6.21;100.00
45872;BME280;32333;55.844;-3.210;2024-02-21T10:27:10;96960.56;;;5.64;100.00
45872;BME280;32333;55.844;-3.210;2024-02-21T10:29:38;96944.31;;;5.72;100.00
45872;BME280;32333;55.844;-3.210;2024-02-21T10:32:08;96941.50;;;6.11;100.00
45872;BME280;32333;55.844;-3.210;2024-02-21T10:34:36;96929.02;;;6.56;100.00
45872;BME280;32333;55.844;-3.210;2024-02-21T10:37:05;96912.61;;;6.22;100.00
45872;BME280;32333;55.844;-3.210;2024-02-21T10:39:38;96895.57;;;5.83;100.00
45872;BME280;32333;55.844;-3.210;2024-02-21T10:44:38;96888.27;;;6.34;100.00
45872;BME280;32333;55.844;-3.210;2024-02-21T10:47:08;96885.26;;;6.29;100.00
45872;BME280;32333;55.844;-3.210;2024-02-21T10:49:39;96885.45;;;6.29;100.00
45872;BME280;32333;55.844;-3.210;2024-02-21T10:52:12;96873.54;;;6.41;100.00
45872;BME280;32333;55.844;-3.210;2024-02-21T10:54:45;96868.40;;;6.42;100.00
45872;BME280;32333;55.844;-3.210;2024-02-21T10:57:14;96854.32;;;6.71;100.00
45872;BME280;32333;55.844;-3.210;2024-02-21T10:59:45;96850.98;;;6.44;100.00
45872;BME280;32333;55.844;-3.210;2024-02-21T11:02:14;96844.41;;;6.61;100.00
45872;BME280;32333;55.844;-3.210;2024-02-21T11:04:42;96834.88;;;6.08;100.00
45872;BME280;32333;55.844;-3.210;2024-02-21T11:07:10;96831.45;;;6.64;100.00
45872;BME280;32333;55.844;-3.210;2024-02-21T11:09:39;96828.69;;;6.26;100.00
45872;BME280;32333;55.844;-3.210;2024-02-21T11:14:34;96811.92;;;6.37;100.00
45872;BME280;32333;55.844;-3.210;2024-02-21T11:17:15;96806.65;;;6.61;100.00
45872;BME280;32333;55.844;-3.210;2024-02-21T11:19:43;96803.39;;;6.92;100.00
45872;BME280;32333;55.844;-3.210;2024-02-21T11:22:16;96802.40;;;6.96;100.00
45872;BME280;32333;55.844;-3.210;2024-02-21T11:24:43;96789.68;;;7.36;100.00
45872;BME280;32333;55.844;-3.210;2024-02-21T11:27:12;96778.06;;;7.22;100.00
45872;BME280;32333;55.844;-3.210;2024-02-21T11:29:42;96778.73;;;7.14;100.00
45872;BME280;32333;55.844;-3.210;2024-02-21T11:32:10;96783.10;;;6.89;100.00
45872;BME280;32333;55.844;-3.210;2024-02-21T11:34:38;96777.09;;;6.95;100.00
45872;BME280;32333;55.844;-3.210;2024-02-21T11:37:13;96775.83;;;6.74;100.00
45872;BME280;32333;55.844;-3.210;2024-02-21T11:39:42;96767.07;;;7.02;100.00
45872;BME280;32333;55.844;-3.210;2024-02-21T11:44:35;96760.54;;;7.50;100.00
45872;BME280;32333;55.844;-3.210;2024-02-21T11:47:03;96759.33;;;7.52;100.00
45872;BME280;32333;55.844;-3.210;2024-02-21T11:49:38;96756.43;;;7.43;100.00
45872;BME280;32333;55.844;-3.210;2024-02-21T11:52:06;96753.03;;;7.37;100.00
45872;BME280;32333;55.844;-3.210;2024-02-21T11:54:34;96748.96;;;7.31;100.00
45872;BME280;32333;55.844;-3.210;2024-02-21T11:57:33;96743.64;;;7.30;100.00
45872;BME280;32333;55.844;-3.210;2024-02-21T12:01:01;96740.28;;;7.91;100.00
45872;BME280;32333;55.844;-3.210;2024-02-21T12:03:42;96723.28;;;7.82;100.00
45872;BME280;32333;55.844;-3.210;2024-02-21T12:06:15;96720.71;;;7.17;100.00
45872;BME280;32333;55.844;-3.210;2024-02-21T12:10:17;96719.77;;;7.63;100.00
45872;BME280;32333;55.844;-3.210;2024-02-21T12:14:35;96709.57;;;7.40;100.00
45872;BME280;32333;55.844;-3.210;2024-02-21T12:17:04;96706.31;;;7.74;100.00
45872;BME280;32333;55.844;-3.210;2024-02-21T12:19:33;96701.12;;;7.64;100.00
45872;BME280;32333;55.844;-3.210;2024-02-21T12:22:01;96682.24;;;7.49;100.00
45872;BME280;32333;55.844;-3.210;2024-02-21T12:24:29;96702.27;;;7.04;100.00
45872;BME280;32333;55.844;-3.210;2024-02-21T12:26:57;96697.63;;;7.39;100.00
45872;BME280;32333;55.844;-3.210;2024-02-21T12:29:25;96686.73;;;7.34;100.00
45872;BME280;32333;55.844;-3.210;2024-02-21T12:31:53;96674.58;;;6.96;100.00
45872;BME280;32333;55.844;-3.210;2024-02-21T12:34:22;96667.07;;;7.08;100.00
45872;BME280;32333;55.844;-3.210;2024-02-21T12:36:50;96665.60;;;7.43;100.00
45872;BME280;32333;55.844;-3.210;2024-02-21T12:39:18;96655.39;;;7.40;100.00
45872;BME280;32333;55.844;-3.210;2024-02-21T12:41:45;96642.51;;;7.38;100.00
45872;BME280;32333;55.844;-3.210;2024-02-21T12:44:35;96639.09;;;7.86;100.00
45872;BME280;32333;55.844;-3.210;2024-02-21T12:47:02;96635.09;;;7.92;100.00
45872;BME280;32333;55.844;-3.210;2024-02-21T12:49:30;96638.08;;;7.82;100.00
45872;BME280;32333;55.844;-3.210;2024-02-21T12:51:57;96635.26;;;8.26;100.00
45872;BME280;32333;55.844;-3.210;2024-02-21T12:54:24;96630.69;;;8.15;100.00
45872;BME280;32333;55.844;-3.210;2024-02-21T12:56:52;96624.27;;;7.64;100.00
45872;BME280;32333;55.844;-3.210;2024-02-21T12:59:19;96626.85;;;7.65;100.00
45872;BME280;32333;55.844;-3.210;2024-02-21T13:01:46;96617.95;;;7.53;100.00
45872;BME280;32333;55.844;-3.210;2024-02-21T13:04:13;96613.79;;;8.00;100.00
45872;BME280;32333;55.844;-3.210;2024-02-21T13:06:40;96613.26;;;8.39;100.00
45872;BME280;32333;55.844;-3.210;2024-02-21T13:09:08;96621.30;;;8.03;100.00
45872;BME280;32333;55.844;-3.210;2024-02-21T13:11:35;96615.87;;;8.18;100.00
45872;BME280;32333;55.844;-3.210;2024-02-21T13:14:35;96618.77;;;8.25;100.00
45872;BME280;32333;55.844;-3.210;2024-02-21T13:17:02;96615.28;;;7.74;100.00